sensor_id;sensor_type;location;lat;lon;timestamp;P1;durP1;ratioP1;P2;durP2;ratioP2
25649;SDS011;13505;45.196;5.696;2022-07-29T04:01:18;5.00;;;2.58;;
25649;SDS011;13505;45.196;5.696;2022-07-29T04:06:09;3.60;;;2.63;;
25649;SDS011;13505;45.196;5.696;2022-07-29T04:11:00;4.33;;;2.70;;
25649;SDS011;13505;45.196;5.696;2022-07-29T04:15:51;4.80;;;2.70;;
25649;SDS011;13505;45.196;5.696;2022-07-29T04:20:42;4.80;;;2.40;;
25649;SDS011;13505;45.196;5.696;2022-07-29T04:25:32;3.87;;;2.20;;
25649;SDS011;13505;45.196;5.696;2022-07-29T04:30:22;4.80;;;2.40;;
25649;SDS011;13505;45.196;5.696;2022-07-29T04:35:13;6.57;;;2.87;;
25649;SDS011;13505;45.196;5.696;2022-07-29T04:40:03;3.83;;;2.70;;
25649;SDS011;13505;45.196;5.696;2022-07-29T04:44:54;4.78;;;2.63;;
25649;SDS011;13505;45.196;5.696;2022-07-29T04:49:44;10.03;;;3.10;;
25649;SDS011;13505;45.196;5.696;2022-07-29T04:54:35;4.15;;;2.50;;
25649;SDS011;13505;45.196;5.696;2022-07-29T04:59:25;4.23;;;2.23;;
25649;SDS011;13505;45.196;5.696;2022-07-29T05:04:16;5.93;;;2.33;;
25649;SDS011;13505;45.196;5.696;2022-07-29T05:09:06;3.93;;;2.80;;
25649;SDS011;13505;45.196;5.696;2022-07-29T05:13:57;6.83;;;2.50;;
25649;SDS011;13505;45.196;5.696;2022-07-29T05:18:47;6.90;;;2.83;;
25649;SDS011;13505;45.196;5.696;2022-07-29T05:23:37;5.43;;;2.80;;
25649;SDS011;13505;45.196;5.696;2022-07-29T05:28:28;4.47;;;2.57;;
25649;SDS011;13505;45.196;5.696;2022-07-29T05:33:18;3.53;;;2.90;;
25649;SDS011;13505;45.196;5.696;2022-07-29T05:38:08;9.27;;;2.83;;
25649;SDS011;13505;45.196;5.696;2022-07-29T05:42:59;6.93;;;3.07;;
25649;SDS011;13505;45.196;5.696;2022-07-29T05:47:49;10.40;;;2.95;;
25649;SDS011;13505;45.196;5.696;2022-07-29T05:52:39;5.77;;;2.40;;
25649;SDS011;13505;45.196;5.696;2022-07-29T05:57:30;14.33;;;2.93;;
25649;SDS011;13505;45.196;5.696;2022-07-29T06:02:20;10.13;;;3.58;;
25649;SDS011;13505;45.196;5.696;2022-07-29T06:07:11;9.10;;;2.80;;
25649;SDS011;13505;45.196;5.696;2022-07-29T06:12:01;10.93;;;3.92;;
25649;SDS011;13505;45.196;5.696;2022-07-29T06:16:53;10.40;;;2.90;;
25649;SDS011;13505;45.196;5.696;2022-07-29T06:21:43;7.45;;;2.80;;
25649;SDS011;13505;45.196;5.696;2022-07-29T06:26:36;10.05;;;2.92;;
25649;SDS011;13505;45.196;5.696;2022-07-29T06:31:27;6.70;;;3.10;;
25649;SDS011;13505;45.196;5.696;2022-07-29T06:36:17;5.70;;;2.50;;
25649;SDS011;13505;45.196;5.696;2022-07-29T06:41:08;5.57;;;2.50;;
25649;SDS011;13505;45.196;5.696;2022-07-29T06:46:03;9.18;;;2.83;;
25649;SDS011;13505;45.196;5.696;2022-07-29T06:50:55;8.15;;;3.10;;
25649;SDS011;13505;45.196;5.696;2022-07-29T06:55:45;5.63;;;2.67;;
25649;SDS011;13505;45.196;5.696;2022-07-29T07:00:35;10.90;;;2.90;;
25649;SDS011;13505;45.196;5.696;2022-07-29T07:05:26;5.38;;;2.80;;
25649;SDS011;13505;45.196;5.696;2022-07-29T07:10:16;12.87;;;2.83;;
25649;SDS011;13505;45.196;5.696;2022-07-29T07:15:07;8.25;;;2.90;;
25649;SDS011;13505;45.196;5.696;2022-07-29T07:19:57;12.30;;;4.00;;
25649;SDS011;13505;45.196;5.696;2022-07-29T07:24:47;15.83;;;3.57;;
25649;SDS011;13505;45.196;5.696;2022-07-29T07:29:38;10.23;;;2.73;;
25649;SDS011;13505;45.196;5.696;2022-07-29T07:34:31;5.70;;;3.08;;
25649;SDS011;13505;45.196;5.696;2022-07-29T07:39:21;5.60;;;2.87;;
25649;SDS011;13505;45.196;5.696;2022-07-29T07:44:11;5.57;;;2.90;;
25649;SDS011;13505;45.196;5.696;2022-07-29T07:49:01;16.30;;;3.27;;
25649;SDS011;13505;45.196;5.696;2022-07-29T07:53:52;11.63;;;2.80;;
25649;SDS011;13505;45.196;5.696;2022-07-29T07:58:42;5.43;;;3.00;;
25649;SDS011;13505;45.196;5.696;2022-07-29T08:03:33;10.18;;;3.88;;
25649;SDS011;13505;45.196;5.696;2022-07-29T08:08:23;9.43;;;4.22;;
25649;SDS011;13505;45.196;5.696;2022-07-29T08:13:13;9.85;;;3.97;;
25649;SDS011;13505;45.196;5.696;2022-07-29T08:18:04;8.13;;;4.00;;
25649;SDS011;13505;45.196;5.696;2022-07-29T08:22:54;8.85;;;4.82;;
25649;SDS011;13505;45.196;5.696;2022-07-29T08:27:45;13.37;;;4.10;;
25649;SDS011;13505;45.196;5.696;2022-07-29T08:32:35;7.30;;;4.18;;
25649;SDS011;13505;45.196;5.696;2022-07-29T08:37:26;10.13;;;4.10;;
25649;SDS011;13505;45.196;5.696;2022-07-29T08:42:16;11.57;;;3.95;;
25649;SDS011;13505;45.196;5.696;2022-07-29T08:47:06;9.50;;;4.10;;
25649;SDS011;13505;45.196;5.696;2022-07-29T08:51:57;6.95;;;4.03;;
25649;SDS011;13505;45.196;5.696;2022-07-29T08:56:48;11.70;;;3.90;;
25649;SDS011;13505;45.196;5.696;2022-07-29T09:01:41;10.50;;;4.78;;
25649;SDS011;13505;45.196;5.696;2022-07-29T09:06:34;14.68;;;5.65;;
25649;SDS011;13505;45.196;5.696;2022-07-29T09:11:27;17.85;;;6.10;;
25649;SDS011;13505;45.196;5.696;2022-07-29T09:16:18;7.97;;;4.35;;
25649;SDS011;13505;45.196;5.696;2022-07-29T09:21:10;9.93;;;4.67;;
25649;SDS011;13505;45.196;5.696;2022-07-29T09:26:24;12.82;;;4.45;;
25649;SDS011;13505;45.196;5.696;2022-07-29T09:31:18;8.32;;;4.35;;
25649;SDS011;13505;45.196;5.696;2022-07-29T09:36:22;8.00;;;3.63;;
25649;SDS011;13505;45.196;5.696;2022-07-29T09:41:12;7.13;;;4.30;;
25649;SDS011;13505;45.196;5.696;2022-07-29T09:46:10;8.02;;;4.18;;
25649;SDS011;13505;45.196;5.696;2022-07-29T09:51:03;9.30;;;4.60;;
25649;SDS011;13505;45.196;5.696;2022-07-29T09:55:55;9.70;;;4.30;;
25649;SDS011;13505;45.196;5.696;2022-07-29T10:00:47;6.35;;;4.40;;
25649;SDS011;13505;45.196;5.696;2022-07-29T10:05:38;7.95;;;5.00;;
25649;SDS011;13505;45.196;5.696;2022-07-29T10:10:31;6.43;;;4.35;;
25649;SDS011;13505;45.196;5.696;2022-07-29T10:15:28;7.50;;;4.95;;
25649;SDS011;13505;45.196;5.696;2022-07-29T10:20:22;9.95;;;5.00;;
25649;SDS011;13505;45.196;5.696;2022-07-29T10:25:13;12.20;;;5.75;;
25649;SDS011;13505;45.196;5.696;2022-07-29T10:30:05;8.27;;;4.38;;
25649;SDS011;13505;45.196;5.696;2022-07-29T10:35:12;11.18;;;4.57;;
25649;SDS011;13505;45.196;5.696;2022-07-29T10:40:22;9.35;;;4.55;;
25649;SDS011;13505;45.196;5.696;2022-07-29T10:45:39;9.52;;;4.28;;
25649;SDS011;13505;45.196;5.696;2022-07-29T10:50:51;5.55;;;3.92;;
25649;SDS011;13505;45.196;5.696;2022-07-29T10:55:44;7.45;;;4.28;;
25649;SDS011;13505;45.196;5.696;2022-07-29T11:00:38;5.10;;;3.85;;
25649;SDS011;13505;45.196;5.696;2022-07-29T11:05:28;9.65;;;4.90;;
25649;SDS011;13505;45.196;5.696;2022-07-29T11:10:22;7.85;;;4.80;;
25649;SDS011;13505;45.196;5.696;2022-07-29T11:15:14;7.13;;;4.65;;
25649;SDS011;13505;45.196;5.696;2022-07-29T11:25:38;9.57;;;6.63;;
25649;SDS011;13505;45.196;5.696;2022-07-29T11:35:38;18.83;;;7.28;;
25649;SDS011;13505;45.196;5.696;2022-07-29T11:40:29;14.97;;;7.50;;
25649;SDS011;13505;45.196;5.696;2022-07-29T11:45:20;12.35;;;6.45;;
25649;SDS011;13505;45.196;5.696;2022-07-29T11:50:15;8.38;;;5.47;;
25649;SDS011;13505;45.196;5.696;2022-07-29T11:55:18;10.23;;;6.70;;
25649;SDS011;13505;45.196;5.696;2022-07-29T12:00:09;10.07;;;6.20;;
25649;SDS011;13505;45.196;5.696;2022-07-29T12:05:00;9.63;;;7.18;;
25649;SDS011;13505;45.196;5.696;2022-07-29T12:09:51;9.83;;;5.93;;
25649;SDS011;13505;45.196;5.696;2022-07-29T12:14:42;8.05;;;5.40;;
25649;SDS011;13505;45.196;5.696;2022-07-29T12:19:41;7.65;;;5.40;;
25649;SDS011;13505;45.196;5.696;2022-07-29T12:24:43;9.13;;;5.03;;
25649;SDS011;13505;45.196;5.696;2022-07-29T12:29:34;8.13;;;5.30;;
25649;SDS011;13505;45.196;5.696;2022-07-29T12:34:26;7.70;;;5.40;;
25649;SDS011;13505;45.196;5.696;2022-07-29T12:39:18;7.85;;;6.20;;
25649;SDS011;13505;45.196;5.696;2022-07-29T12:44:09;8.93;;;6.70;;
25649;SDS011;13505;45.196;5.696;2022-07-29T12:49:00;9.52;;;6.28;;
25649;SDS011;13505;45.196;5.696;2022-07-29T12:58:54;8.55;;;5.88;;
25649;SDS011;13505;45.196;5.696;2022-07-29T13:03:54;10.07;;;6.50;;
25649;SDS011;13505;45.196;5.696;2022-07-29T13:08:59;7.80;;;5.38;;
25649;SDS011;13505;45.196;5.696;2022-07-29T13:13:54;10.00;;;6.22;;
25649;SDS011;13505;45.196;5.696;2022-07-29T13:18:45;12.67;;;6.23;;
25649;SDS011;13505;45.196;5.696;2022-07-29T13:23:35;8.37;;;5.87;;
25649;SDS011;13505;45.196;5.696;2022-07-29T13:28:25;8.88;;;5.38;;
25649;SDS011;13505;45.196;5.696;2022-07-29T13:33:16;8.30;;;5.27;;
25649;SDS011;13505;45.196;5.696;2022-07-29T13:38:06;8.02;;;5.38;;
25649;SDS011;13505;45.196;5.696;2022-07-29T13:42:57;6.57;;;5.10;;
25649;SDS011;13505;45.196;5.696;2022-07-29T13:47:47;6.37;;;5.10;;
25649;SDS011;13505;45.196;5.696;2022-07-29T13:52:37;6.57;;;4.75;;
25649;SDS011;13505;45.196;5.696;2022-07-29T13:57:28;7.97;;;4.60;;
25649;SDS011;13505;45.196;5.696;2022-07-29T14:02:19;6.57;;;5.00;;
25649;SDS011;13505;45.196;5.696;2022-07-29T14:07:09;6.87;;;5.03;;
25649;SDS011;13505;45.196;5.696;2022-07-29T14:11:59;6.88;;;5.20;;
25649;SDS011;13505;45.196;5.696;2022-07-29T14:16:51;5.60;;;5.00;;
25649;SDS011;13505;45.196;5.696;2022-07-29T14:21:41;8.10;;;4.50;;
25649;SDS011;13505;45.196;5.696;2022-07-29T14:26:32;8.77;;;4.60;;
25649;SDS011;13505;45.196;5.696;2022-07-29T14:31:22;5.93;;;4.63;;
25649;SDS011;13505;45.196;5.696;2022-07-29T14:36:12;7.05;;;4.45;;
25649;SDS011;13505;45.196;5.696;2022-07-29T14:41:03;6.07;;;4.90;;
25649;SDS011;13505;45.196;5.696;2022-07-29T14:45:54;8.05;;;5.00;;
25649;SDS011;13505;45.196;5.696;2022-07-29T14:50:44;5.55;;;4.70;;
25649;SDS011;13505;45.196;5.696;2022-07-29T14:55:34;5.20;;;4.70;;
25649;SDS011;13505;45.196;5.696;2022-07-29T15:00:25;5.32;;;4.78;;
25649;SDS011;13505;45.196;5.696;2022-07-29T15:05:16;6.90;;;4.90;;
25649;SDS011;13505;45.196;5.696;2022-07-29T15:10:07;7.10;;;4.80;;
25649;SDS011;13505;45.196;5.696;2022-07-29T15:14:57;9.10;;;4.55;;
25649;SDS011;13505;45.196;5.696;2022-07-29T15:19:48;6.80;;;4.70;;
25649;SDS011;13505;45.196;5.696;2022-07-29T15:24:38;4.55;;;4.15;;
25649;SDS011;13505;45.196;5.696;2022-07-29T15:29:28;6.17;;;4.50;;
25649;SDS011;13505;45.196;5.696;2022-07-29T15:34:19;7.03;;;4.30;;
25649;SDS011;13505;45.196;5.696;2022-07-29T15:39:10;5.20;;;3.78;;
25649;SDS011;13505;45.196;5.696;2022-07-29T15:44:00;4.37;;;3.63;;
25649;SDS011;13505;45.196;5.696;2022-07-29T15:48:51;3.97;;;3.67;;
25649;SDS011;13505;45.196;5.696;2022-07-29T15:53:41;7.07;;;3.70;;
25649;SDS011;13505;45.196;5.696;2022-07-29T15:58:31;3.70;;;3.40;;
25649;SDS011;13505;45.196;5.696;2022-07-29T16:03:22;4.60;;;3.30;;
25649;SDS011;13505;45.196;5.696;2022-07-29T16:08:13;4.63;;;3.60;;
25649;SDS011;13505;45.196;5.696;2022-07-29T16:13:04;6.93;;;3.53;;
25649;SDS011;13505;45.196;5.696;2022-07-29T16:17:54;3.58;;;2.90;;
25649;SDS011;13505;45.196;5.696;2022-07-29T16:22:44;3.47;;;3.13;;
25649;SDS011;13505;45.196;5.696;2022-07-29T16:27:35;4.25;;;3.17;;
25649;SDS011;13505;45.196;5.696;2022-07-29T16:32:25;4.45;;;2.88;;
25649;SDS011;13505;45.196;5.696;2022-07-29T16:37:16;3.00;;;2.70;;
25649;SDS011;13505;45.196;5.696;2022-07-29T16:42:06;4.05;;;2.60;;
25649;SDS011;13505;45.196;5.696;2022-07-29T16:46:56;3.37;;;2.83;;
25649;SDS011;13505;45.196;5.696;2022-07-29T16:51:47;2.85;;;2.65;;
25649;SDS011;13505;45.196;5.696;2022-07-29T16:56:37;3.00;;;2.70;;
25649;SDS011;13505;45.196;5.696;2022-07-29T17:01:28;3.30;;;2.90;;
25649;SDS011;13505;45.196;5.696;2022-07-29T17:06:18;2.97;;;2.50;;
25649;SDS011;13505;45.196;5.696;2022-07-29T17:11:08;3.50;;;2.35;;
25649;SDS011;13505;45.196;5.696;2022-07-29T17:15:59;2.60;;;2.07;;
25649;SDS011;13505;45.196;5.696;2022-07-29T17:20:49;4.07;;;2.00;;
25649;SDS011;13505;45.196;5.696;2022-07-29T17:25:39;2.83;;;2.43;;
25649;SDS011;13505;45.196;5.696;2022-07-29T17:30:30;2.73;;;2.43;;
25649;SDS011;13505;45.196;5.696;2022-07-29T17:35:20;3.33;;;2.40;;
25649;SDS011;13505;45.196;5.696;2022-07-29T17:40:29;4.10;;;2.13;;
25649;SDS011;13505;45.196;5.696;2022-07-29T17:45:19;2.90;;;2.07;;
25649;SDS011;13505;45.196;5.696;2022-07-29T17:50:10;2.80;;;2.33;;
25649;SDS011;13505;45.196;5.696;2022-07-29T17:55:00;2.10;;;1.90;;
25649;SDS011;13505;45.196;5.696;2022-07-29T17:59:51;2.38;;;2.13;;
25649;SDS011;13505;45.196;5.696;2022-07-29T18:04:41;2.60;;;2.20;;
25649;SDS011;13505;45.196;5.696;2022-07-29T18:09:33;2.88;;;2.30;;
25649;SDS011;13505;45.196;5.696;2022-07-29T18:14:23;3.13;;;2.40;;
25649;SDS011;13505;45.196;5.696;2022-07-29T18:19:14;3.80;;;2.67;;
25649;SDS011;13505;45.196;5.696;2022-07-29T18:24:05;3.40;;;2.70;;
25649;SDS011;13505;45.196;5.696;2022-07-29T18:28:55;4.15;;;2.67;;
25649;SDS011;13505;45.196;5.696;2022-07-29T18:33:46;4.93;;;2.70;;
25649;SDS011;13505;45.196;5.696;2022-07-29T18:38:36;3.27;;;2.73;;
25649;SDS011;13505;45.196;5.696;2022-07-29T18:43:27;4.72;;;2.60;;
25649;SDS011;13505;45.196;5.696;2022-07-29T18:48:17;7.07;;;5.18;;
25649;SDS011;13505;45.196;5.696;2022-07-29T18:53:07;3.33;;;2.63;;
25649;SDS011;13505;45.196;5.696;2022-07-29T18:57:58;6.33;;;3.90;;
25649;SDS011;13505;45.196;5.696;2022-07-29T19:02:48;3.63;;;3.30;;
25649;SDS011;13505;45.196;5.696;2022-07-29T19:07:39;5.57;;;3.83;;
25649;SDS011;13505;45.196;5.696;2022-07-29T19:12:29;4.45;;;3.60;;
25649;SDS011;13505;45.196;5.696;2022-07-29T19:17:20;7.00;;;4.32;;
25649;SDS011;13505;45.196;5.696;2022-07-29T19:22:10;7.25;;;3.40;;
25649;SDS011;13505;45.196;5.696;2022-07-29T19:27:02;4.32;;;3.25;;
25649;SDS011;13505;45.196;5.696;2022-07-29T19:31:52;3.53;;;2.92;;
25649;SDS011;13505;45.196;5.696;2022-07-29T19:36:43;6.63;;;2.85;;
25649;SDS011;13505;45.196;5.696;2022-07-29T19:41:33;5.05;;;2.90;;
25649;SDS011;13505;45.196;5.696;2022-07-29T19:46:24;3.33;;;2.85;;
25649;SDS011;13505;45.196;5.696;2022-07-29T19:51:17;3.10;;;2.45;;
25649;SDS011;13505;45.196;5.696;2022-07-29T19:56:07;5.63;;;3.00;;
25649;SDS011;13505;45.196;5.696;2022-07-29T20:00:58;5.55;;;3.85;;
25649;SDS011;13505;45.196;5.696;2022-07-29T20:05:48;3.83;;;3.27;;
25649;SDS011;13505;45.196;5.696;2022-07-29T20:10:40;11.07;;;5.90;;
25649;SDS011;13505;45.196;5.696;2022-07-29T20:15:30;8.83;;;4.90;;
25649;SDS011;13505;45.196;5.696;2022-07-29T20:20:20;8.53;;;3.67;;
25649;SDS011;13505;45.196;5.696;2022-07-29T20:25:12;5.60;;;3.80;;
25649;SDS011;13505;45.196;5.696;2022-07-29T20:30:04;5.85;;;3.85;;
25649;SDS011;13505;45.196;5.696;2022-07-29T20:34:55;9.32;;;3.20;;
25649;SDS011;13505;45.196;5.696;2022-07-29T20:39:45;32.07;;;6.77;;
25649;SDS011;13505;45.196;5.696;2022-07-29T20:44:36;8.27;;;3.38;;
25649;SDS011;13505;45.196;5.696;2022-07-29T20:49:27;8.37;;;3.67;;
25649;SDS011;13505;45.196;5.696;2022-07-29T20:54:17;3.65;;;3.00;;
25649;SDS011;13505;45.196;5.696;2022-07-29T20:59:07;8.13;;;3.30;;
25649;SDS011;13505;45.196;5.696;2022-07-29T21:03:59;4.38;;;3.22;;
25649;SDS011;13505;45.196;5.696;2022-07-29T21:08:50;6.22;;;4.13;;
25649;SDS011;13505;45.196;5.696;2022-07-29T21:13:40;5.80;;;3.78;;
25649;SDS011;13505;45.196;5.696;2022-07-29T21:18:33;5.78;;;3.70;;
25649;SDS011;13505;45.196;5.696;2022-07-29T21:23:26;6.00;;;3.63;;
25649;SDS011;13505;45.196;5.696;2022-07-29T21:28:16;4.40;;;3.40;;
25649;SDS011;13505;45.196;5.696;2022-07-29T21:33:16;3.90;;;2.92;;
25649;SDS011;13505;45.196;5.696;2022-07-29T21:38:07;3.70;;;3.17;;
25649;SDS011;13505;45.196;5.696;2022-07-29T21:42:57;6.27;;;3.10;;
25649;SDS011;13505;45.196;5.696;2022-07-29T21:47:47;4.90;;;3.33;;
25649;SDS011;13505;45.196;5.696;2022-07-29T21:52:37;3.77;;;3.00;;
25649;SDS011;13505;45.196;5.696;2022-07-29T21:57:28;3.97;;;3.30;;
